createdAt,value
2023-04-21T00:00:56.542Z,22.92
2023-04-21T00:04:01.350Z,23.30
2023-04-21T00:07:05.611Z,23.23
2023-04-21T00:10:11.350Z,24.40
2023-04-21T00:13:15.449Z,24.83
2023-04-21T00:16:19.431Z,24.83
2023-04-21T00:19:23.818Z,24.98
2023-04-21T00:22:27.764Z,24.27
2023-04-21T00:25:32.080Z,24.70
2023-04-21T00:28:39.476Z,26.23
2023-04-21T00:31:43.933Z,25.00
2023-04-21T00:34:48.076Z,25.48
2023-04-21T00:37:52.147Z,25.42
2023-04-21T00:40:56.432Z,24.92
2023-04-21T00:44:12.285Z,25.90
2023-04-21T00:47:16.408Z,25.33
2023-04-21T00:50:20.414Z,25.50
2023-04-21T00:53:24.727Z,26.20
2023-04-21T00:56:32.186Z,26.75
2023-04-21T00:59:36.694Z,26.95
2023-04-21T01:02:41.432Z,27.00
2023-04-21T01:05:46.708Z,26.85
2023-04-21T01:08:52.499Z,27.13
2023-04-21T01:12:08.976Z,26.75
2023-04-21T01:15:14.356Z,27.20
2023-04-21T01:18:19.241Z,27.73
2023-04-21T01:21:51.720Z,27.25
2023-04-21T01:24:56.190Z,28.13
2023-04-21T01:28:03.606Z,27.75
2023-04-21T01:31:07.863Z,28.05
2023-04-21T01:34:11.943Z,27.40
2023-04-21T01:37:19.245Z,27.95
2023-04-21T01:40:23.270Z,28.63
2023-04-21T01:43:27.497Z,28.30
2023-04-21T01:46:31.727Z,27.65
2023-04-21T01:49:35.884Z,27.58
2023-04-21T01:52:39.600Z,28.77
2023-04-21T01:55:43.803Z,28.38
2023-04-21T01:58:47.709Z,28.02
2023-04-21T02:01:51.566Z,26.00
2023-04-21T02:04:55.944Z,27.65
2023-04-21T02:07:59.896Z,26.48
2023-04-21T02:11:04.096Z,26.75
2023-04-21T02:14:08.540Z,27.13
2023-04-21T02:17:13.361Z,27.25
2023-04-21T02:20:17.149Z,26.17
2023-04-21T02:23:21.363Z,26.45
2023-04-21T02:26:25.637Z,27.20
2023-04-21T02:29:29.576Z,24.05
2023-04-21T02:32:33.843Z,25.25
2023-04-21T02:35:37.757Z,24.25
2023-04-21T02:38:41.668Z,23.75
2023-04-21T02:41:45.704Z,23.80
2023-04-21T02:44:49.874Z,24.20
2023-04-21T02:47:54.030Z,22.83
2023-04-21T02:50:58.070Z,23.35
2023-04-21T02:54:03.080Z,23.95
2023-04-21T02:57:07.230Z,21.98
2023-04-21T03:00:14.728Z,21.70
2023-04-21T03:03:19.168Z,21.90
2023-04-21T03:06:23.627Z,22.40
2023-04-21T03:09:27.495Z,21.35
2023-04-21T03:12:31.677Z,21.35
2023-04-21T03:15:35.850Z,21.17
2023-04-21T03:18:40.319Z,21.60
2023-04-21T03:21:44.422Z,21.08
2023-04-21T03:24:48.423Z,19.42
2023-04-21T03:27:52.693Z,20.08
2023-04-21T03:30:57.053Z,19.50
2023-04-21T03:34:01.090Z,20.45
2023-04-21T03:37:05.205Z,19.92
2023-04-21T03:40:09.529Z,19.88
2023-04-21T03:43:13.537Z,20.33
2023-04-21T03:46:19.432Z,20.63
2023-04-21T03:49:24.012Z,21.33
2023-04-21T03:52:28.227Z,19.35
2023-04-21T03:55:32.179Z,20.08
2023-04-21T03:58:36.851Z,18.75
2023-04-21T04:01:42.344Z,18.92
2023-04-21T04:04:47.513Z,18.70
2023-04-21T04:07:51.840Z,18.10
2023-04-21T04:10:56.615Z,18.95
2023-04-21T04:14:00.644Z,17.80
2023-04-21T04:17:04.771Z,18.38
2023-04-21T04:20:09.299Z,18.02
2023-04-21T04:23:13.405Z,17.95
2023-04-21T04:26:18.652Z,16.77
2023-04-21T04:29:22.926Z,17.50
2023-04-21T04:32:29.993Z,16.75
2023-04-21T04:35:33.868Z,16.63
2023-04-21T04:38:37.850Z,16.38
2023-04-21T04:41:42.074Z,15.55
2023-04-21T04:44:47.293Z,16.27
2023-04-21T04:47:51.513Z,16.27
2023-04-21T04:50:55.720Z,16.75
2023-04-21T04:53:59.944Z,15.88
2023-04-21T04:57:04.167Z,15.70
2023-04-21T05:00:11.524Z,16.48
2023-04-21T05:03:15.611Z,17.30
2023-04-21T05:06:19.879Z,16.02
2023-04-21T05:09:24.134Z,15.63
2023-04-21T05:12:28.146Z,16.13
2023-04-21T05:15:32.353Z,16.20
2023-04-21T05:18:36.356Z,16.05
2023-04-21T05:21:40.601Z,15.20
2023-04-21T05:24:44.726Z,16.15
2023-04-21T05:27:48.943Z,14.23
2023-04-21T05:30:52.864Z,14.70
2023-04-21T05:33:56.667Z,15.40
2023-04-21T05:37:00.872Z,16.17
2023-04-21T05:40:05.311Z,14.90
2023-04-21T05:43:09.241Z,15.40
2023-04-21T05:46:13.224Z,14.52
2023-04-21T05:49:17.625Z,15.30
2023-04-21T05:52:21.882Z,14.63
2023-04-21T05:55:26.151Z,14.80
2023-04-21T05:58:30.429Z,14.48
2023-04-21T06:01:34.496Z,14.48
2023-04-21T06:04:38.985Z,14.27
2023-04-21T06:07:43.637Z,14.30
2023-04-21T06:10:47.961Z,14.00
2023-04-21T06:13:54.350Z,13.30
2023-04-21T06:16:58.480Z,13.63
2023-04-21T06:20:02.529Z,13.27
2023-04-21T06:23:06.599Z,13.43
2023-04-21T06:26:10.923Z,12.73
2023-04-21T06:29:14.711Z,12.35
2023-04-21T06:32:18.749Z,12.30
2023-04-21T06:35:22.909Z,13.07
2023-04-21T06:38:27.307Z,11.82
2023-04-21T06:41:31.602Z,11.63
2023-04-21T06:44:35.296Z,11.32
2023-04-21T06:47:39.563Z,11.13
2023-04-21T06:50:46.694Z,11.32
2023-04-21T06:53:50.723Z,10.95
2023-04-21T06:56:54.909Z,10.75
2023-04-21T06:59:59.179Z,10.52
2023-04-21T07:03:03.309Z,10.27
2023-04-21T07:06:07.502Z,9.23
2023-04-21T07:09:11.652Z,9.23
2023-04-21T07:12:15.994Z,8.93
2023-04-21T07:15:20.497Z,10.00
2023-04-21T07:18:24.660Z,8.82
2023-04-21T07:21:30.916Z,8.85
2023-04-21T07:24:35.586Z,8.45
2023-04-21T07:27:39.900Z,8.15
2023-04-21T07:30:44.185Z,8.85
2023-04-21T07:33:48.008Z,8.25
2023-04-21T07:36:52.366Z,8.10
2023-04-21T07:39:56.535Z,7.70
2023-04-21T07:43:00.835Z,7.60
2023-04-21T07:46:05.099Z,8.07
2023-04-21T07:49:09.435Z,7.88
2023-04-21T07:52:13.654Z,7.57
2023-04-21T07:55:17.987Z,7.60
2023-04-21T07:58:22.421Z,7.80
2023-04-21T08:01:26.484Z,7.60
2023-04-21T08:04:31.170Z,7.22
2023-04-21T08:07:35.870Z,6.97
2023-04-21T08:10:40.057Z,7.07
2023-04-21T08:13:44.412Z,6.93
2023-04-21T08:16:48.686Z,6.70
2023-04-21T08:19:52.687Z,7.35
2023-04-21T08:22:58.110Z,7.00
2023-04-21T08:26:03.466Z,6.78
2023-04-21T08:29:10.102Z,6.93
2023-04-21T08:32:14.498Z,6.32
2023-04-21T08:35:18.989Z,7.05
2023-04-21T08:38:22.809Z,7.25
2023-04-21T08:41:26.826Z,6.70
2023-04-21T08:44:31.287Z,6.03
2023-04-21T08:47:38.840Z,6.72
2023-04-21T08:50:45.633Z,6.60
2023-04-21T08:53:50.036Z,6.38
2023-04-21T08:57:01.447Z,6.07
2023-04-21T09:00:12.745Z,5.75
2023-04-21T09:03:27.351Z,5.28
2023-04-21T09:06:43.529Z,5.20
2023-04-21T09:09:55.479Z,5.90
2023-04-21T09:13:06.216Z,5.13
2023-04-21T09:16:22.226Z,5.05
2023-04-21T09:19:30.787Z,4.93
2023-04-21T09:22:37.994Z,5.03
2023-04-21T09:25:43.577Z,4.72
2023-04-21T09:28:49.102Z,4.95
2023-04-21T09:31:53.135Z,4.65
2023-04-21T09:35:00.757Z,4.82
2023-04-21T09:38:10.576Z,4.55
2023-04-21T09:41:17.817Z,4.20
2023-04-21T09:44:22.149Z,4.05
2023-04-21T09:47:30.102Z,4.05
2023-04-21T09:51:11.338Z,4.18
2023-04-21T09:54:00.530Z,3.90
2023-04-21T09:57:05.829Z,3.80
2023-04-21T10:00:12.385Z,3.80
2023-04-21T10:03:19.209Z,4.05
2023-04-21T10:06:23.541Z,3.83
2023-04-21T10:09:34.492Z,3.95
2023-04-21T10:12:38.436Z,3.80
2023-04-21T10:15:42.639Z,4.00
2023-04-21T10:18:46.949Z,3.63
2023-04-21T10:21:51.491Z,3.30
2023-04-21T10:24:57.093Z,3.30
2023-04-21T10:28:00.870Z,3.40
2023-04-21T10:31:23.493Z,3.35
2023-04-21T10:34:38.614Z,3.10
2023-04-21T10:37:42.957Z,3.33
2023-04-21T10:40:47.013Z,3.10
2023-04-21T10:43:51.129Z,3.50
2023-04-21T10:46:55.458Z,3.20
2023-04-21T10:50:11.485Z,3.65
2023-04-21T10:53:16.783Z,3.38
2023-04-21T10:56:21.798Z,3.38
2023-04-21T10:59:29.224Z,3.30
2023-04-21T11:02:38.122Z,3.17
2023-04-21T11:05:43.719Z,3.50
2023-04-21T11:08:57.801Z,3.33
2023-04-21T11:12:17.792Z,3.30
2023-04-21T11:15:21.926Z,2.85
2023-04-21T11:18:42.718Z,3.00
2023-04-21T11:21:48.772Z,2.90
2023-04-21T11:24:57.303Z,3.00
2023-04-21T11:28:01.560Z,3.17
2023-04-21T11:31:06.073Z,3.40
2023-04-21T11:34:10.016Z,3.40
2023-04-21T11:37:20.706Z,3.35
2023-04-21T11:40:24.574Z,3.20
2023-04-21T11:43:28.848Z,3.30
2023-04-21T11:46:33.547Z,3.03
2023-04-21T11:49:44.928Z,3.47
2023-04-21T11:52:50.266Z,3.17
2023-04-21T11:55:56.815Z,3.00
2023-04-21T11:59:01.417Z,2.95
2023-04-21T12:02:05.328Z,3.03
2023-04-21T12:05:11.628Z,2.72
2023-04-21T12:08:16.312Z,3.40
2023-04-21T12:11:20.683Z,3.00
2023-04-21T12:14:28.957Z,3.38
2023-04-21T12:17:40.531Z,2.80
2023-04-21T12:20:52.095Z,3.10
2023-04-21T12:23:57.151Z,2.70
2023-04-21T12:27:01.704Z,3.63
2023-04-21T12:30:06.346Z,3.20
2023-04-21T12:33:11.629Z,2.83
2023-04-21T12:36:16.727Z,3.42
2023-04-21T12:39:21.936Z,3.03
2023-04-21T12:42:26.088Z,2.85
2023-04-21T12:45:31.840Z,3.25
2023-04-21T12:48:35.890Z,3.22
2023-04-21T12:51:39.947Z,3.00
2023-04-21T12:54:44.744Z,3.15
2023-04-21T12:57:50.143Z,4.00
2023-04-21T13:00:55.298Z,3.13
2023-04-21T13:04:00.565Z,2.67
2023-04-21T13:07:04.877Z,3.13
2023-04-21T13:10:09.335Z,2.88
2023-04-21T13:13:13.667Z,2.90
2023-04-21T13:16:17.882Z,3.20
2023-04-21T13:19:21.886Z,2.97
2023-04-21T13:22:26.064Z,2.88
2023-04-21T13:25:30.518Z,2.72
2023-04-21T13:28:34.319Z,2.60
2023-04-21T13:31:38.931Z,2.80
2023-04-21T13:34:43.190Z,2.70
2023-04-21T13:37:48.141Z,2.97
2023-04-21T13:40:52.846Z,3.15
2023-04-21T13:43:57.280Z,3.03
2023-04-21T13:47:01.556Z,2.83
2023-04-21T13:50:06.169Z,2.80
2023-04-21T13:53:10.874Z,2.50
2023-04-21T13:56:15.480Z,2.80
2023-04-21T13:59:21.050Z,2.85
2023-04-21T14:02:25.910Z,2.60
2023-04-21T14:05:30.675Z,2.30
2023-04-21T14:08:35.860Z,2.63
2023-04-21T14:11:39.887Z,2.78
2023-04-21T14:14:44.310Z,2.38
2023-04-21T14:17:48.533Z,2.50
2023-04-21T14:20:52.710Z,2.35
2023-04-21T14:23:56.739Z,2.28
2023-04-21T14:27:01.126Z,2.47
2023-04-21T14:30:06.229Z,2.60
2023-04-21T14:33:10.833Z,2.40
2023-04-21T14:36:15.365Z,2.28
2023-04-21T14:39:19.538Z,2.30
2023-04-21T14:42:23.580Z,2.35
2023-04-21T14:45:28.001Z,2.35
2023-04-21T14:48:32.533Z,2.42
2023-04-21T14:51:38.267Z,2.20
2023-04-21T14:54:42.323Z,2.60
2023-04-21T14:57:47.054Z,2.55
2023-04-21T15:00:51.454Z,2.75
2023-04-21T15:03:57.568Z,2.10
2023-04-21T15:07:02.518Z,2.20
2023-04-21T15:10:08.540Z,2.33
2023-04-21T15:13:12.645Z,2.20
2023-04-21T15:16:16.795Z,2.38
2023-04-21T15:19:22.564Z,2.30
2023-04-21T15:22:28.558Z,2.70
2023-04-21T15:25:33.147Z,2.50
2023-04-21T15:28:39.456Z,2.80
2023-04-21T15:31:44.277Z,3.08
2023-04-21T15:34:49.139Z,2.97
2023-04-21T15:37:53.283Z,2.92
2023-04-21T15:41:01.026Z,2.72
2023-04-21T15:44:05.712Z,3.50
2023-04-21T15:47:09.977Z,2.92
2023-04-21T15:50:14.442Z,3.15
2023-04-21T15:53:20.135Z,3.60
2023-04-21T15:56:24.697Z,3.10
2023-04-21T15:59:28.845Z,2.60
2023-04-21T16:02:33.138Z,2.70
2023-04-21T16:05:38.105Z,2.70
2023-04-21T16:08:42.133Z,2.83
2023-04-21T16:11:46.682Z,2.75
2023-04-21T16:14:57.541Z,2.63
2023-04-21T16:18:08.455Z,2.90
2023-04-21T16:21:13.099Z,2.97
2023-04-21T16:24:17.259Z,3.10
2023-04-21T16:27:21.748Z,3.17
2023-04-21T16:30:26.151Z,3.35
2023-04-21T16:33:30.863Z,3.67
2023-04-21T16:36:35.052Z,4.68
2023-04-21T16:39:39.030Z,4.40
2023-04-21T16:42:43.083Z,3.45
2023-04-21T16:45:47.358Z,2.95
2023-04-21T16:48:52.130Z,3.47
2023-04-21T16:51:56.493Z,3.90
2023-04-21T16:55:00.634Z,3.90
2023-04-21T16:58:04.827Z,3.75
2023-04-21T17:01:09.085Z,3.75
2023-04-21T17:04:15.838Z,4.13
2023-04-21T17:07:20.245Z,4.13
2023-04-21T17:10:24.549Z,3.83
2023-04-21T17:13:28.574Z,3.70
2023-04-21T17:16:33.348Z,3.78
2023-04-21T17:19:37.695Z,4.05
2023-04-21T17:22:42.729Z,4.60
2023-04-21T17:25:46.810Z,3.72
2023-04-21T17:28:51.506Z,4.55
2023-04-21T17:31:55.607Z,4.28
2023-04-21T17:34:59.875Z,4.03
2023-04-21T17:38:03.992Z,3.72
2023-04-21T17:41:08.473Z,3.90
2023-04-21T17:44:12.739Z,3.90
2023-04-21T17:47:17.040Z,4.03
2023-04-21T17:50:22.714Z,4.38
2023-04-21T17:53:27.144Z,4.45
2023-04-21T17:56:31.476Z,4.20
2023-04-21T17:59:38.366Z,4.47
2023-04-21T18:02:42.434Z,4.47
2023-04-21T18:05:46.583Z,4.35
2023-04-21T18:08:51.033Z,4.70
2023-04-21T18:11:55.297Z,4.38
2023-04-21T18:15:00.987Z,4.43
2023-04-21T18:18:05.174Z,4.53
2023-04-21T18:21:09.142Z,4.63
2023-04-21T18:24:13.360Z,4.60
2023-04-21T18:27:17.840Z,4.90
2023-04-21T18:30:21.995Z,5.25
2023-04-21T18:33:26.437Z,4.63
2023-04-21T18:36:33.129Z,4.78
2023-04-21T18:39:37.569Z,4.78
2023-04-21T18:42:41.845Z,4.93
2023-04-21T18:45:46.646Z,4.93
2023-04-21T18:48:50.710Z,4.68
2023-04-21T18:51:54.854Z,4.30
2023-04-21T18:54:58.881Z,4.85
2023-04-21T18:58:03.081Z,5.18
2023-04-21T19:01:07.943Z,4.80
2023-04-21T19:04:12.909Z,4.85
2023-04-21T19:07:17.136Z,5.22
2023-04-21T19:10:21.074Z,5.25
2023-04-21T19:13:25.728Z,4.93
2023-04-21T19:16:29.975Z,5.07
2023-04-21T19:19:34.250Z,4.85
2023-04-21T19:22:38.560Z,5.13
2023-04-21T19:25:43.077Z,5.47
2023-04-21T19:28:47.215Z,5.53
2023-04-21T19:31:51.622Z,5.22
2023-04-21T19:34:55.498Z,5.20
2023-04-21T19:37:59.574Z,5.40
2023-04-21T19:41:03.490Z,5.93
2023-04-21T19:44:07.590Z,5.50
2023-04-21T19:47:11.532Z,6.07
2023-04-21T19:50:16.364Z,4.88
2023-04-21T19:53:20.558Z,5.18
2023-04-21T19:56:24.868Z,5.93
2023-04-21T19:59:29.257Z,5.85
2023-04-21T20:02:33.569Z,6.20
2023-04-21T20:05:37.397Z,5.60
2023-04-21T20:08:41.640Z,6.00
2023-04-21T20:11:46.230Z,5.97
2023-04-21T20:14:51.881Z,6.05
2023-04-21T20:17:56.087Z,6.15
2023-04-21T20:21:00.343Z,6.43
2023-04-21T20:24:04.522Z,6.03
2023-04-21T20:27:08.853Z,6.93
2023-04-21T20:30:13.451Z,6.82
2023-04-21T20:33:18.075Z,6.95
2023-04-21T20:36:22.054Z,6.85
2023-04-21T20:39:26.159Z,7.38
2023-04-21T20:42:30.307Z,7.18
2023-04-21T20:45:34.964Z,7.53
2023-04-21T20:48:38.923Z,7.80
2023-04-21T20:51:42.826Z,8.05
2023-04-21T20:54:46.735Z,8.27
2023-04-21T20:57:51.019Z,8.65
2023-04-21T21:00:55.085Z,8.48
2023-04-21T21:04:01.374Z,8.82
2023-04-21T21:07:06.227Z,8.60
2023-04-21T21:10:11.358Z,9.20
2023-04-21T21:13:15.875Z,8.52
2023-04-21T21:16:20.056Z,8.63
2023-04-21T21:19:24.230Z,8.90
2023-04-21T21:22:28.551Z,8.75
2023-04-21T21:25:32.727Z,9.25
2023-04-21T21:28:36.952Z,8.85
2023-04-21T21:31:41.207Z,8.65
2023-04-21T21:34:45.641Z,8.23
2023-04-21T21:37:49.919Z,8.10
2023-04-21T21:40:53.939Z,8.25
2023-04-21T21:43:58.273Z,8.13
2023-04-21T21:47:02.594Z,8.00
2023-04-21T21:50:07.500Z,8.20
2023-04-21T21:53:12.036Z,8.13
2023-04-21T21:56:15.876Z,7.88
2023-04-21T21:59:20.652Z,8.00
2023-04-21T22:02:24.698Z,7.45
2023-04-21T22:05:28.939Z,7.75
2023-04-21T22:08:32.675Z,7.30
2023-04-21T22:11:37.044Z,7.72
2023-04-21T22:14:41.257Z,7.45
2023-04-21T22:17:45.478Z,7.15
2023-04-21T22:20:49.644Z,7.45
2023-04-21T22:23:53.853Z,7.18
2023-04-21T22:26:58.117Z,7.53
2023-04-21T22:30:03.300Z,7.38
2023-04-21T22:33:07.546Z,7.15
2023-04-21T22:36:11.798Z,7.38
2023-04-21T22:39:15.690Z,7.72
2023-04-21T22:42:20.248Z,7.50
2023-04-21T22:45:24.271Z,7.07
2023-04-21T22:48:28.454Z,7.75
2023-04-21T22:51:32.960Z,7.93
2023-04-21T22:54:36.646Z,8.05
2023-04-21T22:57:40.735Z,7.50
2023-04-21T23:00:45.327Z,7.30
2023-04-21T23:03:49.637Z,7.38
2023-04-21T23:06:53.498Z,7.38
2023-04-21T23:09:57.182Z,7.10
2023-04-21T23:13:02.886Z,7.07
2023-04-21T23:16:07.632Z,7.95
2023-04-21T23:19:11.879Z,8.07
2023-04-21T23:22:16.095Z,7.32
2023-04-21T23:25:20.699Z,7.63
2023-04-21T23:28:24.640Z,7.50
2023-04-21T23:31:30.554Z,7.80
2023-04-21T23:34:34.806Z,7.05
2023-04-21T23:37:38.888Z,7.13
2023-04-21T23:40:42.893Z,7.70
2023-04-21T23:43:47.101Z,7.03
2023-04-21T23:46:51.164Z,7.50
2023-04-21T23:49:55.472Z,7.40
2023-04-21T23:52:59.507Z,7.80
2023-04-21T23:56:03.649Z,7.72
2023-04-21T23:59:07.711Z,7.68
